sensor_id;sensor_type;location;lat;lon;timestamp;pressure;altitude;pressure_sealevel;temperature;humidity
46846;BME280;33947;46.804;134.252;2022-07-12T00:00:50;100561.38;;;30.86;56.66
46846;BME280;33947;46.804;134.252;2022-07-12T00:03:55;100560.50;;;30.94;59.87
46846;BME280;33947;46.804;134.252;2022-07-12T00:06:59;100558.50;;;31.76;56.72
46846;BME280;33947;46.804;134.252;2022-07-12T00:10:03;100559.03;;;32.50;55.93
46846;BME280;33947;46.804;134.252;2022-07-12T00:13:07;100554.78;;;32.47;52.83
46846;BME280;33947;46.804;134.252;2022-07-12T00:16:14;100554.09;;;33.13;53.23
46846;BME280;33947;46.804;134.252;2022-07-12T00:19:18;100546.19;;;33.40;50.11
46846;BME280;33947;46.804;134.252;2022-07-12T00:22:23;100546.81;;;33.05;48.94
46846;BME280;33947;46.804;134.252;2022-07-12T00:25:28;100543.84;;;33.37;51.48
46846;BME280;33947;46.804;134.252;2022-07-12T00:28:32;100536.22;;;33.39;52.16
46846;BME280;33947;46.804;134.252;2022-07-12T00:31:36;100535.22;;;32.42;48.05
46846;BME280;33947;46.804;134.252;2022-07-12T00:34:41;100538.50;;;32.75;47.03
46846;BME280;33947;46.804;134.252;2022-07-12T00:37:45;100539.44;;;32.83;49.13
46846;BME280;33947;46.804;134.252;2022-07-12T00:40:50;100540.41;;;33.87;48.73
46846;BME280;33947;46.804;134.252;2022-07-12T00:43:55;100534.38;;;34.42;45.26
46846;BME280;33947;46.804;134.252;2022-07-12T00:47:02;100526.91;;;34.35;46.34
46846;BME280;33947;46.804;134.252;2022-07-12T00:50:08;100517.31;;;33.88;42.63
46846;BME280;33947;46.804;134.252;2022-07-12T00:53:16;100515.69;;;33.72;42.89
46846;BME280;33947;46.804;134.252;2022-07-12T00:56:26;100513.13;;;34.35;44.70
46846;BME280;33947;46.804;134.252;2022-07-12T00:59:31;100513.00;;;35.56;45.15
46846;BME280;33947;46.804;134.252;2022-07-12T01:02:36;100516.38;;;34.17;44.01
46846;BME280;33947;46.804;134.252;2022-07-12T01:05:40;100507.38;;;35.29;44.04
46846;BME280;33947;46.804;134.252;2022-07-12T01:08:44;100502.44;;;35.11;44.17
46846;BME280;33947;46.804;134.252;2022-07-12T01:11:48;100497.66;;;34.98;46.73
46846;BME280;33947;46.804;134.252;2022-07-12T01:14:52;100504.53;;;34.81;45.14
46846;BME280;33947;46.804;134.252;2022-07-12T01:17:57;100497.91;;;35.52;44.83
46846;BME280;33947;46.804;134.252;2022-07-12T01:21:03;100494.84;;;36.22;41.01
46846;BME280;33947;46.804;134.252;2022-07-12T01:24:09;100498.06;;;36.06;43.53
46846;BME280;33947;46.804;134.252;2022-07-12T01:27:13;100495.94;;;35.39;40.25
46846;BME280;33947;46.804;134.252;2022-07-12T01:30:18;100500.84;;;34.38;44.55
46846;BME280;33947;46.804;134.252;2022-07-12T01:33:23;100489.25;;;35.69;44.46
46846;BME280;33947;46.804;134.252;2022-07-12T01:36:30;100486.16;;;34.59;42.21
46846;BME280;33947;46.804;134.252;2022-07-12T01:39:34;100485.44;;;34.22;42.36
46846;BME280;33947;46.804;134.252;2022-07-12T01:42:39;100482.88;;;34.71;45.12
46846;BME280;33947;46.804;134.252;2022-07-12T01:45:44;100485.03;;;34.82;45.21
46846;BME280;33947;46.804;134.252;2022-07-12T01:48:48;100478.06;;;34.51;43.37
46846;BME280;33947;46.804;134.252;2022-07-12T01:51:54;100481.75;;;33.71;42.29
46846;BME280;33947;46.804;134.252;2022-07-12T01:54:58;100488.31;;;34.35;42.57
46846;BME280;33947;46.804;134.252;2022-07-12T01:58:05;100483.63;;;34.36;43.38
46846;BME280;33947;46.804;134.252;2022-07-12T02:01:10;100476.81;;;34.89;43.36
46846;BME280;33947;46.804;134.252;2022-07-12T02:04:18;100478.69;;;34.88;40.93
46846;BME280;33947;46.804;134.252;2022-07-12T02:07:23;100467.81;;;35.15;40.66
46846;BME280;33947;46.804;134.252;2022-07-12T02:10:28;100473.09;;;35.66;41.99
46846;BME280;33947;46.804;134.252;2022-07-12T02:13:32;100472.13;;;35.31;42.56
46846;BME280;33947;46.804;134.252;2022-07-12T02:16:56;100472.66;;;34.43;44.41
46846;BME280;33947;46.804;134.252;2022-07-12T02:20:00;100473.56;;;34.22;45.28
46846;BME280;33947;46.804;134.252;2022-07-12T02:23:05;100468.91;;;31.98;48.08
46846;BME280;33947;46.804;134.252;2022-07-12T02:26:09;100462.72;;;31.50;44.61
46846;BME280;33947;46.804;134.252;2022-07-12T02:29:14;100452.53;;;30.87;52.66
46846;BME280;33947;46.804;134.252;2022-07-12T02:32:19;100452.28;;;31.76;48.29
46846;BME280;33947;46.804;134.252;2022-07-12T02:35:24;100444.78;;;32.32;46.88
46846;BME280;33947;46.804;134.252;2022-07-12T02:38:28;100443.13;;;30.81;51.42
46846;BME280;33947;46.804;134.252;2022-07-12T02:41:33;100441.72;;;30.04;52.99
46846;BME280;33947;46.804;134.252;2022-07-12T02:44:37;100434.69;;;30.91;48.72
46846;BME280;33947;46.804;134.252;2022-07-12T02:47:41;100440.41;;;30.73;45.33
46846;BME280;33947;46.804;134.252;2022-07-12T02:50:45;100438.16;;;31.56;49.33
46846;BME280;33947;46.804;134.252;2022-07-12T02:53:49;100437.50;;;31.78;47.35
46846;BME280;33947;46.804;134.252;2022-07-12T02:56:53;100438.81;;;31.58;45.96
46846;BME280;33947;46.804;134.252;2022-07-12T02:59:58;100438.25;;;32.33;46.57
46846;BME280;33947;46.804;134.252;2022-07-12T03:03:02;100438.59;;;31.37;47.31
46846;BME280;33947;46.804;134.252;2022-07-12T03:06:07;100439.72;;;31.82;47.16
46846;BME280;33947;46.804;134.252;2022-07-12T03:09:11;100435.59;;;31.78;48.15
46846;BME280;33947;46.804;134.252;2022-07-12T03:12:15;100428.63;;;30.56;49.04
46846;BME280;33947;46.804;134.252;2022-07-12T03:15:19;100418.78;;;29.97;47.08
46846;BME280;33947;46.804;134.252;2022-07-12T03:18:23;100429.16;;;30.51;46.11
46846;BME280;33947;46.804;134.252;2022-07-12T03:21:28;100428.13;;;30.44;47.33
46846;BME280;33947;46.804;134.252;2022-07-12T03:24:32;100428.97;;;31.41;46.29
46846;BME280;33947;46.804;134.252;2022-07-12T03:27:37;100432.00;;;31.14;46.72
46846;BME280;33947;46.804;134.252;2022-07-12T03:30:45;100428.72;;;31.51;45.37
46846;BME280;33947;46.804;134.252;2022-07-12T03:33:50;100426.72;;;31.44;47.21
46846;BME280;33947;46.804;134.252;2022-07-12T03:36:54;100422.56;;;31.48;47.44
46846;BME280;33947;46.804;134.252;2022-07-12T03:39:58;100413.25;;;31.58;47.01
46846;BME280;33947;46.804;134.252;2022-07-12T03:43:03;100412.09;;;31.29;47.19
46846;BME280;33947;46.804;134.252;2022-07-12T03:46:08;100415.59;;;30.66;46.71
46846;BME280;33947;46.804;134.252;2022-07-12T03:49:12;100407.78;;;30.95;48.33
46846;BME280;33947;46.804;134.252;2022-07-12T03:52:17;100408.19;;;31.15;49.12
46846;BME280;33947;46.804;134.252;2022-07-12T03:55:21;100410.78;;;30.77;47.36
46846;BME280;33947;46.804;134.252;2022-07-12T03:58:26;100409.84;;;30.93;47.42
46846;BME280;33947;46.804;134.252;2022-07-12T04:01:30;100404.81;;;30.48;46.90
46846;BME280;33947;46.804;134.252;2022-07-12T04:04:35;100408.00;;;30.12;49.83
46846;BME280;33947;46.804;134.252;2022-07-12T04:07:42;100400.28;;;30.15;48.75
46846;BME280;33947;46.804;134.252;2022-07-12T04:10:46;100403.53;;;30.19;49.13
46846;BME280;33947;46.804;134.252;2022-07-12T04:13:50;100401.69;;;30.03;49.29
46846;BME280;33947;46.804;134.252;2022-07-12T04:16:55;100393.78;;;30.00;45.21
46846;BME280;33947;46.804;134.252;2022-07-12T04:19:59;100397.28;;;29.34;49.82
46846;BME280;33947;46.804;134.252;2022-07-12T04:23:04;100393.28;;;29.88;48.68
46846;BME280;33947;46.804;134.252;2022-07-12T04:26:08;100386.94;;;30.12;49.99
46846;BME280;33947;46.804;134.252;2022-07-12T04:29:13;100388.28;;;30.25;49.06
46846;BME280;33947;46.804;134.252;2022-07-12T04:32:17;100383.19;;;29.55;46.75
46846;BME280;33947;46.804;134.252;2022-07-12T04:35:21;100373.44;;;29.78;49.95
46846;BME280;33947;46.804;134.252;2022-07-12T04:38:25;100381.97;;;30.08;52.11
46846;BME280;33947;46.804;134.252;2022-07-12T04:41:30;100377.19;;;30.01;50.12
46846;BME280;33947;46.804;134.252;2022-07-12T04:44:34;100382.66;;;29.60;49.07
46846;BME280;33947;46.804;134.252;2022-07-12T04:47:38;100382.16;;;29.65;49.47
46846;BME280;33947;46.804;134.252;2022-07-12T04:50:42;100383.00;;;29.90;49.90
46846;BME280;33947;46.804;134.252;2022-07-12T04:53:47;100376.16;;;29.78;49.56
46846;BME280;33947;46.804;134.252;2022-07-12T04:56:52;100375.13;;;30.03;49.83
46846;BME280;33947;46.804;134.252;2022-07-12T04:59:56;100376.84;;;29.88;49.56
46846;BME280;33947;46.804;134.252;2022-07-12T05:03:00;100380.63;;;30.12;52.94
46846;BME280;33947;46.804;134.252;2022-07-12T05:06:04;100380.09;;;30.00;50.31
46846;BME280;33947;46.804;134.252;2022-07-12T05:09:09;100382.31;;;29.71;51.85
46846;BME280;33947;46.804;134.252;2022-07-12T05:12:13;100378.34;;;29.90;51.22
46846;BME280;33947;46.804;134.252;2022-07-12T05:15:18;100384.47;;;29.35;52.55
46846;BME280;33947;46.804;134.252;2022-07-12T05:18:22;100378.28;;;28.38;53.03
46846;BME280;33947;46.804;134.252;2022-07-12T05:21:26;100376.66;;;28.45;53.66
46846;BME280;33947;46.804;134.252;2022-07-12T05:24:32;100373.25;;;28.52;52.59
46846;BME280;33947;46.804;134.252;2022-07-12T05:27:36;100373.97;;;28.27;54.21
46846;BME280;33947;46.804;134.252;2022-07-12T05:30:40;100367.94;;;28.50;54.16
46846;BME280;33947;46.804;134.252;2022-07-12T05:33:45;100370.53;;;28.52;52.60
46846;BME280;33947;46.804;134.252;2022-07-12T05:36:49;100372.41;;;28.86;52.30
46846;BME280;33947;46.804;134.252;2022-07-12T05:39:53;100363.00;;;28.97;52.78
46846;BME280;33947;46.804;134.252;2022-07-12T05:42:57;100368.75;;;29.37;52.87
46846;BME280;33947;46.804;134.252;2022-07-12T05:46:03;100369.06;;;29.17;52.12
46846;BME280;33947;46.804;134.252;2022-07-12T05:49:08;100374.22;;;29.20;56.13
46846;BME280;33947;46.804;134.252;2022-07-12T05:52:12;100368.91;;;29.18;53.36
46846;BME280;33947;46.804;134.252;2022-07-12T05:55:34;100363.00;;;28.88;50.57
46846;BME280;33947;46.804;134.252;2022-07-12T05:58:39;100360.44;;;28.87;53.16
46846;BME280;33947;46.804;134.252;2022-07-12T06:01:43;100369.34;;;28.89;51.49
46846;BME280;33947;46.804;134.252;2022-07-12T06:04:47;100361.16;;;28.97;51.55
46846;BME280;33947;46.804;134.252;2022-07-12T06:07:53;100360.69;;;29.10;51.92
46846;BME280;33947;46.804;134.252;2022-07-12T06:10:57;100350.09;;;29.15;52.03
46846;BME280;33947;46.804;134.252;2022-07-12T06:14:04;100344.25;;;29.02;52.03
46846;BME280;33947;46.804;134.252;2022-07-12T06:17:08;100339.25;;;28.89;50.67
46846;BME280;33947;46.804;134.252;2022-07-12T06:20:12;100341.25;;;28.79;51.76
46846;BME280;33947;46.804;134.252;2022-07-12T06:23:17;100331.91;;;28.47;51.27
46846;BME280;33947;46.804;134.252;2022-07-12T06:26:21;100339.31;;;28.63;52.61
46846;BME280;33947;46.804;134.252;2022-07-12T06:29:26;100335.69;;;28.54;50.71
46846;BME280;33947;46.804;134.252;2022-07-12T06:32:30;100329.91;;;28.65;52.27
46846;BME280;33947;46.804;134.252;2022-07-12T06:35:34;100333.78;;;28.81;52.94
46846;BME280;33947;46.804;134.252;2022-07-12T06:38:39;100335.94;;;28.69;52.90
46846;BME280;33947;46.804;134.252;2022-07-12T06:41:52;100337.44;;;28.63;51.70
46846;BME280;33947;46.804;134.252;2022-07-12T06:44:56;100334.56;;;28.73;52.67
46846;BME280;33947;46.804;134.252;2022-07-12T06:48:01;100336.69;;;28.87;52.28
46846;BME280;33947;46.804;134.252;2022-07-12T06:51:06;100337.88;;;28.85;51.92
46846;BME280;33947;46.804;134.252;2022-07-12T06:54:10;100341.13;;;28.80;52.19
46846;BME280;33947;46.804;134.252;2022-07-12T06:57:14;100339.78;;;28.93;52.09
46846;BME280;33947;46.804;134.252;2022-07-12T07:00:19;100335.19;;;29.01;52.23
46846;BME280;33947;46.804;134.252;2022-07-12T07:03:23;100335.66;;;28.88;52.75
46846;BME280;33947;46.804;134.252;2022-07-12T07:06:27;100334.47;;;28.91;53.13
46846;BME280;33947;46.804;134.252;2022-07-12T07:09:31;100330.75;;;29.00;53.16
46846;BME280;33947;46.804;134.252;2022-07-12T07:12:37;100327.59;;;28.79;50.31
46846;BME280;33947;46.804;134.252;2022-07-12T07:15:42;100330.44;;;28.60;51.49
46846;BME280;33947;46.804;134.252;2022-07-12T07:18:46;100297.25;;;28.55;52.70
46846;BME280;33947;46.804;134.252;2022-07-12T07:21:50;100317.16;;;28.74;52.03
46846;BME280;33947;46.804;134.252;2022-07-12T07:24:55;100320.22;;;28.71;52.87
46846;BME280;33947;46.804;134.252;2022-07-12T07:27:59;100314.56;;;28.72;52.43
46846;BME280;33947;46.804;134.252;2022-07-12T07:31:04;100333.19;;;28.69;53.02
46846;BME280;33947;46.804;134.252;2022-07-12T07:34:08;100321.38;;;28.68;51.54
46846;BME280;33947;46.804;134.252;2022-07-12T07:37:13;100319.50;;;28.60;52.74
46846;BME280;33947;46.804;134.252;2022-07-12T07:40:18;100322.50;;;28.41;51.87
46846;BME280;33947;46.804;134.252;2022-07-12T07:43:22;100322.50;;;28.49;51.19
46846;BME280;33947;46.804;134.252;2022-07-12T07:46:27;100322.63;;;28.39;51.22
46846;BME280;33947;46.804;134.252;2022-07-12T07:49:32;100323.47;;;28.31;50.76
46846;BME280;33947;46.804;134.252;2022-07-12T07:52:36;100323.19;;;28.43;52.12
46846;BME280;33947;46.804;134.252;2022-07-12T07:55:40;100329.19;;;28.47;52.71
46846;BME280;33947;46.804;134.252;2022-07-12T07:58:44;100321.94;;;28.37;51.74
46846;BME280;33947;46.804;134.252;2022-07-12T08:01:49;100325.69;;;28.36;52.73
46846;BME280;33947;46.804;134.252;2022-07-12T08:04:56;100329.66;;;28.42;53.46
46846;BME280;33947;46.804;134.252;2022-07-12T08:08:00;100322.59;;;28.31;54.36
46846;BME280;33947;46.804;134.252;2022-07-12T08:11:05;100322.72;;;28.21;52.74
46846;BME280;33947;46.804;134.252;2022-07-12T08:14:09;100318.13;;;28.22;52.20
46846;BME280;33947;46.804;134.252;2022-07-12T08:17:14;100321.19;;;28.19;53.69
46846;BME280;33947;46.804;134.252;2022-07-12T08:20:18;100330.84;;;28.13;55.59
46846;BME280;33947;46.804;134.252;2022-07-12T08:23:42;100330.78;;;28.05;55.34
46846;BME280;33947;46.804;134.252;2022-07-12T08:26:47;100328.75;;;28.07;55.74
46846;BME280;33947;46.804;134.252;2022-07-12T08:29:52;100325.28;;;27.96;54.14
46846;BME280;33947;46.804;134.252;2022-07-12T08:32:56;100332.22;;;27.91;54.63
46846;BME280;33947;46.804;134.252;2022-07-12T08:36:00;100329.34;;;27.92;56.45
46846;BME280;33947;46.804;134.252;2022-07-12T08:39:04;100328.28;;;27.85;55.66
46846;BME280;33947;46.804;134.252;2022-07-12T08:42:09;100329.22;;;27.76;56.76
46846;BME280;33947;46.804;134.252;2022-07-12T08:45:18;100328.16;;;27.68;55.33
46846;BME280;33947;46.804;134.252;2022-07-12T08:48:22;100334.00;;;27.73;57.18
46846;BME280;33947;46.804;134.252;2022-07-12T08:51:26;100335.91;;;27.55;55.91
46846;BME280;33947;46.804;134.252;2022-07-12T08:54:40;100328.84;;;27.34;55.12
46846;BME280;33947;46.804;134.252;2022-07-12T08:57:44;100344.00;;;27.28;54.85
46846;BME280;33947;46.804;134.252;2022-07-12T09:00:48;100349.66;;;27.17;55.53
46846;BME280;33947;46.804;134.252;2022-07-12T09:07:28;100357.53;;;26.74;56.25
46846;BME280;33947;46.804;134.252;2022-07-12T09:10:32;100358.72;;;26.62;58.21
46846;BME280;33947;46.804;134.252;2022-07-12T09:13:54;100368.81;;;26.51;57.41
46846;BME280;33947;46.804;134.252;2022-07-12T09:16:58;100371.44;;;26.43;58.72
46846;BME280;33947;46.804;134.252;2022-07-12T09:20:04;100376.03;;;26.33;58.53
46846;BME280;33947;46.804;134.252;2022-07-12T09:23:09;100376.06;;;26.23;61.34
46846;BME280;33947;46.804;134.252;2022-07-12T09:26:16;100378.91;;;26.11;62.55
46846;BME280;33947;46.804;134.252;2022-07-12T09:29:20;100376.38;;;26.20;62.19
46846;BME280;33947;46.804;134.252;2022-07-12T09:32:24;100377.22;;;26.20;59.64
46846;BME280;33947;46.804;134.252;2022-07-12T09:36:07;100382.78;;;26.28;57.65
46846;BME280;33947;46.804;134.252;2022-07-12T09:39:11;100388.78;;;26.32;57.72
46846;BME280;33947;46.804;134.252;2022-07-12T09:42:16;100386.91;;;26.33;58.38
46846;BME280;33947;46.804;134.252;2022-07-12T09:45:29;100389.13;;;26.19;60.72
46846;BME280;33947;46.804;134.252;2022-07-12T09:48:33;100390.69;;;26.12;60.91
46846;BME280;33947;46.804;134.252;2022-07-12T09:51:38;100396.72;;;26.06;60.20
46846;BME280;33947;46.804;134.252;2022-07-12T09:54:44;100392.41;;;26.03;60.38
46846;BME280;33947;46.804;134.252;2022-07-12T09:57:49;100382.53;;;26.02;61.06
46846;BME280;33947;46.804;134.252;2022-07-12T10:00:57;100383.25;;;25.94;60.24
46846;BME280;33947;46.804;134.252;2022-07-12T10:04:03;100384.13;;;25.85;62.40
46846;BME280;33947;46.804;134.252;2022-07-12T10:07:08;100375.25;;;25.73;62.24
46846;BME280;33947;46.804;134.252;2022-07-12T10:10:13;100368.69;;;25.66;62.24
46846;BME280;33947;46.804;134.252;2022-07-12T10:13:18;100370.41;;;25.57;62.00
46846;BME280;33947;46.804;134.252;2022-07-12T10:16:27;100373.28;;;25.55;62.59
46846;BME280;33947;46.804;134.252;2022-07-12T10:19:33;100371.09;;;25.39;64.67
46846;BME280;33947;46.804;134.252;2022-07-12T10:22:39;100380.41;;;25.27;65.77
46846;BME280;33947;46.804;134.252;2022-07-12T10:25:43;100381.22;;;25.18;62.86
46846;BME280;33947;46.804;134.252;2022-07-12T10:29:06;100378.78;;;25.14;64.34
46846;BME280;33947;46.804;134.252;2022-07-12T10:35:26;100385.88;;;24.86;68.25
46846;BME280;33947;46.804;134.252;2022-07-12T10:38:30;100393.41;;;24.73;67.22
46846;BME280;33947;46.804;134.252;2022-07-12T10:41:35;100388.81;;;24.73;67.30
46846;BME280;33947;46.804;134.252;2022-07-12T10:44:40;100379.31;;;24.57;67.61
46846;BME280;33947;46.804;134.252;2022-07-12T10:47:56;100370.81;;;24.41;71.13
46846;BME280;33947;46.804;134.252;2022-07-12T10:51:12;100380.91;;;24.29;70.28
46846;BME280;33947;46.804;134.252;2022-07-12T10:54:19;100378.88;;;24.21;70.76
46846;BME280;33947;46.804;134.252;2022-07-12T10:57:41;100379.03;;;24.30;69.58
46846;BME280;33947;46.804;134.252;2022-07-12T11:00:46;100393.06;;;24.35;69.40
46846;BME280;33947;46.804;134.252;2022-07-12T11:03:57;100380.53;;;24.43;67.31
46846;BME280;33947;46.804;134.252;2022-07-12T11:07:07;100384.03;;;24.24;70.97
46846;BME280;33947;46.804;134.252;2022-07-12T11:10:11;100391.81;;;23.96;71.83
46846;BME280;33947;46.804;134.252;2022-07-12T11:13:20;100388.91;;;23.88;72.37
46846;BME280;33947;46.804;134.252;2022-07-12T11:16:28;100393.13;;;23.81;73.28
46846;BME280;33947;46.804;134.252;2022-07-12T11:19:33;100399.41;;;23.81;73.78
46846;BME280;33947;46.804;134.252;2022-07-12T11:22:39;100397.22;;;23.75;72.91
46846;BME280;33947;46.804;134.252;2022-07-12T11:25:44;100387.22;;;23.54;73.75
46846;BME280;33947;46.804;134.252;2022-07-12T11:28:48;100399.34;;;23.39;74.48
46846;BME280;33947;46.804;134.252;2022-07-12T11:32:02;100401.47;;;23.35;74.55
46846;BME280;33947;46.804;134.252;2022-07-12T11:38:26;100406.53;;;23.17;75.41
46846;BME280;33947;46.804;134.252;2022-07-12T11:41:54;100417.28;;;22.96;76.80
46846;BME280;33947;46.804;134.252;2022-07-12T11:44:59;100417.03;;;22.88;77.04
46846;BME280;33947;46.804;134.252;2022-07-12T11:48:03;100420.25;;;22.93;76.93
46846;BME280;33947;46.804;134.252;2022-07-12T11:51:10;100423.31;;;22.88;76.27
46846;BME280;33947;46.804;134.252;2022-07-12T11:54:15;100424.66;;;22.82;76.78
46846;BME280;33947;46.804;134.252;2022-07-12T11:57:20;100420.88;;;22.74;76.32
46846;BME280;33947;46.804;134.252;2022-07-12T12:00:25;100407.44;;;22.72;76.37
46846;BME280;33947;46.804;134.252;2022-07-12T12:03:30;100404.25;;;22.67;77.72
46846;BME280;33947;46.804;134.252;2022-07-12T12:06:36;100411.41;;;22.57;77.93
46846;BME280;33947;46.804;134.252;2022-07-12T12:09:59;100404.13;;;22.46;78.31
46846;BME280;33947;46.804;134.252;2022-07-12T12:13:12;100404.06;;;22.34;79.60
46846;BME280;33947;46.804;134.252;2022-07-12T12:16:17;100399.38;;;22.25;79.19
46846;BME280;33947;46.804;134.252;2022-07-12T12:19:21;100403.47;;;22.31;78.71
46846;BME280;33947;46.804;134.252;2022-07-12T12:22:37;100401.00;;;22.27;78.91
46846;BME280;33947;46.804;134.252;2022-07-12T12:25:41;100407.16;;;22.18;78.10
46846;BME280;33947;46.804;134.252;2022-07-12T12:31:57;100399.81;;;21.96;79.76
46846;BME280;33947;46.804;134.252;2022-07-12T12:35:08;100400.59;;;22.09;77.57
46846;BME280;33947;46.804;134.252;2022-07-12T12:38:14;100407.84;;;22.09;78.16
46846;BME280;33947;46.804;134.252;2022-07-12T12:41:19;100416.81;;;21.98;79.76
46846;BME280;33947;46.804;134.252;2022-07-12T12:44:26;100419.84;;;21.82;80.64
46846;BME280;33947;46.804;134.252;2022-07-12T12:47:30;100419.53;;;21.74;81.51
46846;BME280;33947;46.804;134.252;2022-07-12T12:50:54;100417.53;;;21.64;82.06
46846;BME280;33947;46.804;134.252;2022-07-12T12:54:05;100416.00;;;21.60;82.41
46846;BME280;33947;46.804;134.252;2022-07-12T12:57:12;100412.03;;;21.66;80.61
46846;BME280;33947;46.804;134.252;2022-07-12T13:00:17;100419.53;;;21.74;79.81
46846;BME280;33947;46.804;134.252;2022-07-12T13:03:22;100409.84;;;21.71;80.10
46846;BME280;33947;46.804;134.252;2022-07-12T13:06:29;100405.03;;;21.50;81.60
46846;BME280;33947;46.804;134.252;2022-07-12T13:09:33;100408.19;;;21.44;81.09
46846;BME280;33947;46.804;134.252;2022-07-12T13:12:37;100407.63;;;21.52;79.92
46846;BME280;33947;46.804;134.252;2022-07-12T13:15:41;100410.44;;;21.50;80.92
46846;BME280;33947;46.804;134.252;2022-07-12T13:18:46;100416.59;;;21.28;82.08
46846;BME280;33947;46.804;134.252;2022-07-12T13:21:50;100412.34;;;21.13;82.97
46846;BME280;33947;46.804;134.252;2022-07-12T13:24:54;100431.34;;;21.11;83.47
46846;BME280;33947;46.804;134.252;2022-07-12T13:27:59;100429.16;;;21.16;82.59
46846;BME280;33947;46.804;134.252;2022-07-12T13:31:03;100428.63;;;21.11;82.37
46846;BME280;33947;46.804;134.252;2022-07-12T13:34:07;100429.09;;;21.05;83.39
46846;BME280;33947;46.804;134.252;2022-07-12T13:37:11;100425.22;;;20.96;84.07
46846;BME280;33947;46.804;134.252;2022-07-12T13:40:15;100428.50;;;20.88;84.20
46846;BME280;33947;46.804;134.252;2022-07-12T13:43:24;100425.13;;;20.85;84.71
46846;BME280;33947;46.804;134.252;2022-07-12T13:46:28;100426.88;;;20.86;85.12
46846;BME280;33947;46.804;134.252;2022-07-12T13:49:32;100427.28;;;20.92;84.29
46846;BME280;33947;46.804;134.252;2022-07-12T13:52:36;100430.09;;;20.91;83.55
46846;BME280;33947;46.804;134.252;2022-07-12T13:55:42;100438.19;;;20.91;83.70
46846;BME280;33947;46.804;134.252;2022-07-12T13:58:46;100430.31;;;20.75;84.96
46846;BME280;33947;46.804;134.252;2022-07-12T14:01:51;100431.41;;;20.59;86.26
46846;BME280;33947;46.804;134.252;2022-07-12T14:04:55;100429.91;;;20.68;85.41
46846;BME280;33947;46.804;134.252;2022-07-12T14:08:00;100427.59;;;20.62;86.21
46846;BME280;33947;46.804;134.252;2022-07-12T14:11:04;100423.97;;;20.50;87.53
46846;BME280;33947;46.804;134.252;2022-07-12T14:14:08;100424.06;;;20.48;87.13
46846;BME280;33947;46.804;134.252;2022-07-12T14:17:20;100388.03;;;20.36;86.25
46846;BME280;33947;46.804;134.252;2022-07-12T14:20:24;100416.94;;;20.60;85.58
46846;BME280;33947;46.804;134.252;2022-07-12T14:23:34;100417.38;;;20.54;85.09
46846;BME280;33947;46.804;134.252;2022-07-12T14:26:38;100410.34;;;20.51;85.29
46846;BME280;33947;46.804;134.252;2022-07-12T14:29:43;100413.28;;;20.48;85.51
46846;BME280;33947;46.804;134.252;2022-07-12T14:32:47;100404.88;;;20.40;85.97
46846;BME280;33947;46.804;134.252;2022-07-12T14:35:55;100404.66;;;20.30;85.86
46846;BME280;33947;46.804;134.252;2022-07-12T14:38:59;100407.34;;;20.30;85.91
46846;BME280;33947;46.804;134.252;2022-07-12T14:42:04;100400.66;;;20.36;85.38
46846;BME280;33947;46.804;134.252;2022-07-12T14:45:08;100407.03;;;20.35;84.59
46846;BME280;33947;46.804;134.252;2022-07-12T14:48:12;100412.09;;;20.39;83.88
46846;BME280;33947;46.804;134.252;2022-07-12T14:51:16;100410.25;;;20.27;84.79
46846;BME280;33947;46.804;134.252;2022-07-12T14:54:21;100412.72;;;20.17;86.05
46846;BME280;33947;46.804;134.252;2022-07-12T14:57:25;100387.16;;;19.97;87.05
46846;BME280;33947;46.804;134.252;2022-07-12T15:00:29;100418.00;;;20.06;87.53
46846;BME280;33947;46.804;134.252;2022-07-12T15:03:34;100404.63;;;19.91;88.00
46846;BME280;33947;46.804;134.252;2022-07-12T15:06:38;100412.88;;;19.88;88.69
46846;BME280;33947;46.804;134.252;2022-07-12T15:09:42;100421.34;;;19.97;87.30
46846;BME280;33947;46.804;134.252;2022-07-12T15:12:47;100421.78;;;19.90;88.43
46846;BME280;33947;46.804;134.252;2022-07-12T15:15:52;100423.28;;;19.94;88.33
46846;BME280;33947;46.804;134.252;2022-07-12T15:18:56;100429.31;;;19.98;88.48
46846;BME280;33947;46.804;134.252;2022-07-12T15:22:01;100420.59;;;19.94;88.11
46846;BME280;33947;46.804;134.252;2022-07-12T15:25:05;100427.28;;;20.02;87.50
46846;BME280;33947;46.804;134.252;2022-07-12T15:28:11;100429.66;;;20.06;86.27
46846;BME280;33947;46.804;134.252;2022-07-12T15:31:16;100420.59;;;19.94;86.65
46846;BME280;33947;46.804;134.252;2022-07-12T15:34:20;100420.09;;;19.88;87.40
46846;BME280;33947;46.804;134.252;2022-07-12T15:37:24;100427.53;;;19.84;88.00
46846;BME280;33947;46.804;134.252;2022-07-12T15:40:28;100431.81;;;19.74;89.18
46846;BME280;33947;46.804;134.252;2022-07-12T15:43:34;100432.25;;;19.67;88.67
46846;BME280;33947;46.804;134.252;2022-07-12T15:46:38;100437.91;;;19.63;88.53
46846;BME280;33947;46.804;134.252;2022-07-12T15:49:42;100434.94;;;19.67;87.65
46846;BME280;33947;46.804;134.252;2022-07-12T15:52:46;100439.44;;;19.67;88.01
46846;BME280;33947;46.804;134.252;2022-07-12T15:56:09;100434.94;;;19.67;87.50
46846;BME280;33947;46.804;134.252;2022-07-12T15:59:13;100429.00;;;19.62;87.54